Time,TemperatureF,DewpointF,PressureIn,WindDirection,WindDirectionDegrees,WindSpeedMPH,WindSpeedGustMPH,Humidity,HourlyPrecipIn,Conditions,Clouds,dailyrainin,SoftwareType,DateUTC
2013-09-01 00:12:00,67.0,52.0,29.80,SSW,196,0.0,-999.0,59,-99.99,,,-99.99,,2013-09-01 07:12:00,
2013-09-01 00:22:00,67.0,53.0,29.80,SSW,196,0.0,-999.0,61,-99.99,,,-99.99,,2013-09-01 07:22:00,
2013-09-01 00:52:00,66.0,52.0,29.81,SSW,196,0.0,-999.0,61,-99.99,,,-99.99,,2013-09-01 07:52:00,
2013-09-01 01:11:00,65.0,52.0,29.81,SSW,196,0.0,-999.0,63,-99.99,,,-99.99,,2013-09-01 08:11:00,
2013-09-01 01:22:00,65.0,53.0,29.81,SSW,196,0.0,-999.0,64,-99.99,,,-99.99,,2013-09-01 08:22:00,
2013-09-01 01:52:00,64.0,52.0,29.81,SSW,196,0.0,-999.0,66,-99.99,,,-99.99,,2013-09-01 08:52:00,
2013-09-01 02:21:00,63.0,53.0,29.81,SSW,196,0.0,-999.0,69,-99.99,,,-99.99,,2013-09-01 09:21:00,
2013-09-01 02:53:00,62.0,52.0,29.82,SSW,196,0.0,-999.0,69,-99.99,,,-99.99,,2013-09-01 09:53:00,
2013-09-01 03:12:00,62.0,52.0,29.82,SSW,196,0.0,-999.0,69,-99.99,,,-99.99,,2013-09-01 10:12:00,
2013-09-01 03:23:00,61.0,51.0,29.82,SSW,196,0.0,-999.0,70,-99.99,,,-99.99,,2013-09-01 10:23:00,
2013-09-01 03:53:00,60.0,51.0,29.82,SSW,196,0.0,-999.0,72,-99.99,,,-99.99,,2013-09-01 10:53:00,
2013-09-01 04:12:00,60.0,51.0,29.82,SSW,196,0.0,-999.0,71,-99.99,,,-99.99,,2013-09-01 11:12:00,
2013-09-01 04:22:00,60.0,52.0,29.83,SSW,196,0.0,-999.0,74,-99.99,,,-99.99,,2013-09-01 11:22:00,
2013-09-01 04:52:00,59.0,51.0,29.83,SSW,196,0.0,-999.0,74,-99.99,,,-99.99,,2013-09-01 11:52:00,
2013-09-01 05:11:00,59.0,51.0,29.83,SSW,196,0.0,-999.0,75,-99.99,,,-99.99,,2013-09-01 12:11:00,
2013-09-01 05:22:00,58.0,50.0,29.83,SSW,196,0.0,-999.0,75,-99.99,,,-99.99,,2013-09-01 12:22:00,
2013-09-01 05:52:00,58.0,50.0,29.84,SSW,196,0.0,-999.0,76,-99.99,,,-99.99,,2013-09-01 12:52:00,
2013-09-01 06:11:00,57.0,49.0,29.84,SSW,196,0.0,-999.0,75,-99.99,,,-99.99,,2013-09-01 13:11:00,
2013-09-01 06:21:00,57.0,50.0,29.84,SSW,196,0.0,-999.0,76,-99.99,,,-99.99,,2013-09-01 13:21:00,
2013-09-01 06:52:00,57.0,50.0,29.85,SSW,196,0.0,-999.0,78,-99.99,,,-99.99,,2013-09-01 13:52:00,
2013-09-01 07:11:00,57.0,51.0,29.85,SSW,196,0.0,-999.0,79,-99.99,,,-99.99,,2013-09-01 14:11:00,
2013-09-01 07:21:00,57.0,50.0,29.85,SSW,196,0.0,-999.0,78,-99.99,,,-99.99,,2013-09-01 14:21:00,
2013-09-01 07:52:00,59.0,50.0,29.84,SSW,196,0.0,-999.0,71,-99.99,,,-99.99,,2013-09-01 14:52:00,
2013-09-01 08:11:00,59.0,50.0,29.84,SSW,196,0.0,-999.0,72,-99.99,,,-99.99,,2013-09-01 15:11:00,
2013-09-01 08:22:00,61.0,51.0,29.84,SSW,196,0.0,-999.0,69,-99.99,,,-99.99,,2013-09-01 15:22:00,
2013-09-01 08:44:00,61.0,50.0,29.84,SSW,196,0.0,-999.0,68,-99.99,,,-99.99,,2013-09-01 15:44:00,
2013-09-01 08:55:00,63.0,51.0,29.84,SSW,196,0.0,-999.0,64,-99.99,,,-99.99,,2013-09-01 15:55:00,
2013-09-01 09:14:00,64.0,50.0,29.83,SSW,196,0.0,-999.0,61,-99.99,,,-99.99,,2013-09-01 16:14:00,
2013-09-01 09:24:00,67.0,51.0,29.83,SSW,196,1.0,-999.0,56,-99.99,,,-99.99,,2013-09-01 16:24:00,
2013-09-01 09:53:00,70.0,50.0,29.81,SSW,196,0.0,-999.0,50,-99.99,,,-99.99,,2013-09-01 16:53:00,
2013-09-01 10:12:00,71.0,51.0,29.80,SSW,196,0.0,-999.0,49,-99.99,,,-99.99,,2013-09-01 17:12:00,
2013-09-01 10:23:00,73.0,50.0,29.79,SSW,196,1.0,-999.0,45,-99.99,,,-99.99,,2013-09-01 17:23:00,
2013-09-01 10:52:00,78.0,52.0,29.78,SSW,196,1.0,-999.0,40,-99.99,,,-99.99,,2013-09-01 17:52:00,
2013-09-01 11:12:00,79.0,50.0,29.77,SSW,196,0.0,-999.0,36,-99.99,,,-99.99,,2013-09-01 18:12:00,
2013-09-01 11:22:00,80.0,50.0,29.76,SSW,196,1.0,-999.0,35,-99.99,,,-99.99,,2013-09-01 18:22:00,
2013-09-01 11:42:00,82.0,50.0,29.75,SSW,196,1.0,-999.0,33,-99.99,,,-99.99,,2013-09-01 18:42:00,
2013-09-01 11:52:00,84.0,52.0,29.74,SSW,196,1.0,-999.0,33,-99.99,,,-99.99,,2013-09-01 18:52:00,
2013-09-01 12:12:00,86.0,50.0,29.73,SSW,196,1.0,-999.0,29,-99.99,,,-99.99,,2013-09-01 19:12:00,
2013-09-01 12:22:00,87.0,51.0,29.72,SSW,196,1.0,-999.0,29,-99.99,,,-99.99,,2013-09-01 19:22:00,
2013-09-01 12:52:00,89.0,50.0,29.71,South,180,1.0,-999.0,26,-99.99,,,-99.99,,2013-09-01 19:52:00,
2013-09-01 13:12:00,90.0,50.0,29.70,South,181,0.0,-999.0,26,-99.99,,,-99.99,,2013-09-01 20:12:00,
2013-09-01 13:21:00,91.0,50.0,29.70,South,182,1.0,-999.0,25,-99.99,,,-99.99,,2013-09-01 20:21:00,
2013-09-01 13:42:00,93.0,50.0,29.70,SSW,194,1.0,-999.0,23,-99.99,,,-99.99,,2013-09-01 20:42:00,
2013-09-01 13:52:00,92.0,51.0,29.69,South,180,1.0,-999.0,25,-99.99,,,-99.99,,2013-09-01 20:52:00,
2013-09-01 14:21:00,94.0,52.0,29.68,West,277,1.0,-999.0,24,-99.99,,,-99.99,,2013-09-01 21:21:00,
2013-09-01 14:55:00,97.0,51.0,29.67,SSE,153,2.0,-999.0,21,-99.99,,,-99.99,,2013-09-01 21:55:00,
2013-09-01 15:14:00,97.0,51.0,29.66,South,173,3.0,-999.0,21,-99.99,,,-99.99,,2013-09-01 22:14:00,
2013-09-01 15:24:00,98.0,49.0,29.66,SSE,154,2.0,-999.0,19,-99.99,,,-99.99,,2013-09-01 22:24:00,
2013-09-01 15:53:00,97.0,49.0,29.65,WSW,255,3.0,-999.0,20,-99.99,,,-99.99,,2013-09-01 22:53:00,
2013-09-01 16:12:00,96.0,48.0,29.65,South,190,2.0,-999.0,20,-99.99,,,-99.99,,2013-09-01 23:12:00,
2013-09-01 16:23:00,95.0,49.0,29.65,WSW,242,1.0,-999.0,21,-99.99,,,-99.99,,2013-09-01 23:23:00,
2013-09-01 16:53:00,96.0,50.0,29.65,SSE,164,3.0,-999.0,21,-99.99,,,-99.99,,2013-09-01 23:53:00,
2013-09-01 17:11:00,95.0,50.0,29.65,West,268,1.0,-999.0,22,-99.99,,,-99.99,,2013-09-02 00:11:00,
2013-09-01 17:22:00,94.0,49.0,29.66,SSW,212,2.0,-999.0,22,-99.99,,,-99.99,,2013-09-02 00:22:00,
2013-09-01 17:42:00,93.0,47.0,29.65,East,97,2.0,-999.0,21,-99.99,,,-99.99,,2013-09-02 00:42:00,
2013-09-01 17:52:00,92.0,49.0,29.65,North,5,2.0,-999.0,23,-99.99,,,-99.99,,2013-09-02 00:52:00,
2013-09-01 18:12:00,92.0,48.0,29.65,North,11,1.0,-999.0,22,-99.99,,,-99.99,,2013-09-02 01:12:00,
2013-09-01 18:21:00,91.0,52.0,29.65,North,11,0.0,-999.0,27,-99.99,,,-99.99,,2013-09-02 01:21:00,
2013-09-01 18:42:00,91.0,54.0,29.65,North,11,0.0,-999.0,29,-99.99,,,-99.99,,2013-09-02 01:42:00,
2013-09-01 18:52:00,89.0,54.0,29.65,North,11,0.0,-999.0,30,-99.99,,,-99.99,,2013-09-02 01:52:00,
2013-09-01 19:12:00,87.0,55.0,29.64,North,11,0.0,-999.0,34,-99.99,,,-99.99,,2013-09-02 02:12:00,
2013-09-01 19:22:00,86.0,54.0,29.65,North,11,0.0,-999.0,33,-99.99,,,-99.99,,2013-09-02 02:22:00,
2013-09-01 19:42:00,85.0,55.0,29.65,North,11,0.0,-999.0,36,-99.99,,,-99.99,,2013-09-02 02:42:00,
2013-09-01 19:52:00,84.0,55.0,29.65,NW,319,1.0,-999.0,37,-99.99,,,-99.99,,2013-09-02 02:52:00,
2013-09-01 20:11:00,83.0,53.0,29.66,NW,319,0.0,-999.0,36,-99.99,,,-99.99,,2013-09-02 03:11:00,
2013-09-01 20:22:00,83.0,55.0,29.66,NW,311,0.0,-999.0,39,-99.99,,,-99.99,,2013-09-02 03:22:00,
2013-09-01 20:56:00,81.0,53.0,29.66,WNW,290,1.0,-999.0,38,-99.99,,,-99.99,,2013-09-02 03:56:00,
2013-09-01 21:14:00,80.0,55.0,29.67,WNW,290,0.0,-999.0,42,-99.99,,,-99.99,,2013-09-02 04:14:00,
2013-09-01 21:54:00,79.0,55.0,29.70,WNW,290,0.0,-999.0,43,-99.99,,,-99.99,,2013-09-02 04:54:00,
2013-09-01 22:12:00,78.0,54.0,29.70,WNW,290,0.0,-999.0,43,-99.99,,,-99.99,,2013-09-02 05:12:00,
2013-09-01 22:23:00,77.0,55.0,29.70,West,259,0.0,-999.0,46,-99.99,,,-99.99,,2013-09-02 05:23:00,
2013-09-01 22:52:00,76.0,55.0,29.70,West,259,0.0,-999.0,48,-99.99,,,-99.99,,2013-09-02 05:52:00,
2013-09-01 23:12:00,76.0,54.0,29.70,West,259,0.0,-999.0,47,-99.99,,,-99.99,,2013-09-02 06:12:00,
2013-09-01 23:22:00,75.0,55.0,29.71,West,259,0.0,-999.0,49,-99.99,,,-99.99,,2013-09-02 06:22:00,
2013-09-01 23:43:00,75.0,54.0,29.71,SSW,211,0.0,-999.0,48,-99.99,,,-99.99,,2013-09-02 06:43:00,
2013-09-01 23:52:00,74.0,54.0,29.71,SSW,211,0.0,-999.0,50,-99.99,,,-99.99,,2013-09-02 06:52:00,